createdAt,value
2023-10-23T00:01:19.067Z,100893.63
2023-10-23T00:03:51.892Z,100885.16
2023-10-23T00:06:24.964Z,100890.41
2023-10-23T00:08:57.356Z,100892.81
2023-10-23T00:11:28.150Z,100888.78
2023-10-23T00:13:58.571Z,100897.66
2023-10-23T00:16:29.536Z,100894.44
2023-10-23T00:19:02.084Z,100907.72
2023-10-23T00:21:31.749Z,100906.53
2023-10-23T00:24:15.675Z,100913.38
2023-10-23T00:26:43.766Z,100911.75
2023-10-23T00:29:14.173Z,100919.81
2023-10-23T00:31:44.383Z,100916.56
2023-10-23T00:34:18.573Z,100925.03
2023-10-23T00:36:48.719Z,100926.22
2023-10-23T00:39:21.192Z,100932.69
2023-10-23T00:41:48.334Z,100929.03
2023-10-23T00:44:19.503Z,100929.84
2023-10-23T00:46:46.978Z,100924.63
2023-10-23T00:49:22.933Z,100923.81
2023-10-23T00:51:50.741Z,100925.81
2023-10-23T00:54:21.602Z,100918.97
2023-10-23T00:56:54.610Z,100919.78
2023-10-23T00:59:25.573Z,100926.22
2023-10-23T01:01:53.825Z,100925.41
2023-10-23T01:04:27.786Z,100922.59
2023-10-23T01:07:00.249Z,100916.53
2023-10-23T01:09:30.592Z,100916.97
2023-10-23T01:12:03.293Z,100908.09
2023-10-23T01:14:36.018Z,100905.72
2023-10-23T01:17:09.731Z,100913.41
2023-10-23T01:19:39.615Z,100919.53
2023-10-23T01:22:07.671Z,100919.56
2023-10-23T01:24:39.962Z,100915.16
2023-10-23T01:27:07.669Z,100910.72
2023-10-23T01:29:49.441Z,100920.84
2023-10-23T01:32:22.114Z,100914.00
2023-10-23T01:35:01.780Z,100907.13
2023-10-23T01:37:37.399Z,100909.59
2023-10-23T01:40:10.423Z,100907.56
2023-10-23T01:42:43.144Z,100908.81
2023-10-23T01:45:16.021Z,100898.34
2023-10-23T01:47:51.793Z,100898.78
2023-10-23T01:50:25.819Z,100896.75
2023-10-23T01:52:57.042Z,100895.13
2023-10-23T01:55:26.662Z,100889.44
2023-10-23T01:58:05.899Z,100890.31
2023-10-23T02:00:41.237Z,100894.31
2023-10-23T02:03:14.865Z,100893.13
2023-10-23T02:05:49.698Z,100882.69
2023-10-23T02:08:22.995Z,100890.34
2023-10-23T02:10:50.668Z,100885.03
2023-10-23T02:13:24.508Z,100885.06
2023-10-23T02:15:56.941Z,100889.47
2023-10-23T02:18:27.928Z,100889.50
2023-10-23T02:20:57.894Z,100893.13
2023-10-23T02:23:25.475Z,100886.69
2023-10-23T02:25:58.791Z,100889.50
2023-10-23T02:28:26.076Z,100888.69
2023-10-23T02:31:01.408Z,100885.09
2023-10-23T02:33:40.566Z,100896.00
2023-10-23T02:36:16.154Z,100893.50
2023-10-23T02:38:53.745Z,100894.72
2023-10-23T02:41:29.658Z,100897.06
2023-10-23T02:44:02.742Z,100889.81
2023-10-23T02:46:42.036Z,100900.22
2023-10-23T02:49:12.458Z,100894.97
2023-10-23T02:51:45.215Z,100896.16
2023-10-23T02:54:21.795Z,100885.97
2023-10-23T02:56:54.210Z,100882.34
2023-10-23T02:59:27.272Z,100888.34
2023-10-23T03:02:06.714Z,100888.75
2023-10-23T03:04:45.285Z,100895.56
2023-10-23T03:07:15.045Z,100897.94
2023-10-23T03:09:47.889Z,100903.94
2023-10-23T03:12:21.731Z,100907.22
2023-10-23T03:14:51.595Z,100909.66
2023-10-23T03:17:22.797Z,100909.22
2023-10-23T03:19:58.378Z,100905.16
2023-10-23T03:22:37.044Z,100907.97
2023-10-23T03:25:05.793Z,100909.59
2023-10-23T03:27:37.841Z,100914.00
2023-10-23T03:30:08.348Z,100911.19
2023-10-23T03:32:40.854Z,100910.78
2023-10-23T03:35:16.770Z,100930.56
2023-10-23T03:37:53.166Z,100915.31
2023-10-23T03:40:29.764Z,100916.97
2023-10-23T03:42:57.006Z,100910.50
2023-10-23T03:45:35.481Z,100912.88
2023-10-23T03:48:08.893Z,100912.03
2023-10-23T03:50:47.435Z,100913.63
2023-10-23T03:53:19.852Z,100914.81
2023-10-23T03:55:56.700Z,100915.19
2023-10-23T03:58:29.916Z,100917.59
2023-10-23T04:01:11.736Z,100911.16
2023-10-23T04:03:47.815Z,100910.28
2023-10-23T04:06:20.584Z,100907.44
2023-10-23T04:08:56.865Z,100911.09
2023-10-23T04:11:32.726Z,100913.09
2023-10-23T04:14:06.296Z,100910.28
2023-10-23T04:16:44.214Z,100915.50
2023-10-23T04:19:17.949Z,100924.38
2023-10-23T04:21:53.666Z,100923.13
2023-10-23T04:24:27.066Z,100925.59
2023-10-23T04:27:02.697Z,100929.19
2023-10-23T04:29:33.583Z,100937.63
2023-10-23T04:32:11.881Z,100933.59
2023-10-23T04:34:47.808Z,100927.97
2023-10-23T04:37:35.274Z,100936.81
2023-10-23T04:40:07.916Z,100931.97
2023-10-23T04:42:45.927Z,100929.56
2023-10-23T04:45:19.282Z,100934.81
2023-10-23T04:47:57.623Z,100942.00
2023-10-23T04:50:31.119Z,100951.72
2023-10-23T04:53:01.332Z,100951.28
2023-10-23T04:55:43.873Z,100951.28
2023-10-23T04:58:19.883Z,100953.28
2023-10-23T05:00:55.729Z,100963.41
2023-10-23T05:03:34.616Z,100950.06
2023-10-23T05:06:13.616Z,100953.25
2023-10-23T05:08:47.128Z,100943.16
2023-10-23T05:11:25.771Z,100929.88
2023-10-23T05:14:03.931Z,100930.69
2023-10-23T05:16:39.742Z,100927.06
2023-10-23T05:19:12.538Z,100927.88
2023-10-23T05:21:48.461Z,100937.91
2023-10-23T05:24:20.954Z,100930.66
2023-10-23T05:26:51.204Z,100925.41
2023-10-23T05:29:20.872Z,100929.78
2023-10-23T05:32:00.799Z,100950.38
2023-10-23T05:34:28.229Z,100953.16
2023-10-23T05:37:07.314Z,100959.28
2023-10-23T05:39:40.375Z,100960.50
2023-10-23T05:42:08.113Z,100949.97
2023-10-23T05:44:41.526Z,100944.34
2023-10-23T05:47:11.937Z,100952.00
2023-10-23T05:49:44.609Z,100951.22
2023-10-23T05:52:19.609Z,100959.66
2023-10-23T05:54:52.983Z,100959.28
2023-10-23T05:57:26.901Z,100960.50
2023-10-23T05:59:59.376Z,100961.25
2023-10-23T06:02:38.227Z,100968.97
2023-10-23T06:05:05.998Z,100973.03
2023-10-23T06:07:36.886Z,100975.84
2023-10-23T06:10:10.104Z,100992.41
2023-10-23T06:12:40.598Z,100996.94
2023-10-23T06:15:11.473Z,101002.22
2023-10-23T06:17:42.917Z,101004.31
2023-10-23T06:20:18.183Z,101000.06
2023-10-23T06:22:49.367Z,101017.63
2023-10-23T06:25:27.884Z,101011.75
2023-10-23T06:27:59.148Z,101022.66
2023-10-23T06:30:35.762Z,101039.28
2023-10-23T06:33:09.407Z,101040.88
2023-10-23T06:35:42.219Z,101049.75
2023-10-23T06:38:13.803Z,101036.41
2023-10-23T06:40:43.207Z,101040.56
2023-10-23T06:43:17.063Z,101040.94
2023-10-23T06:46:01.584Z,101045.13
2023-10-23T06:48:37.567Z,101042.25
2023-10-23T06:51:08.573Z,101053.53
2023-10-23T06:53:44.342Z,101056.38
2023-10-23T06:56:14.471Z,101050.72
2023-10-23T06:58:44.718Z,101049.97
2023-10-23T07:01:13.880Z,101054.84
2023-10-23T07:03:41.668Z,101057.28
2023-10-23T07:06:13.277Z,101056.56
2023-10-23T07:08:50.366Z,101054.13
2023-10-23T07:11:22.701Z,101054.13
2023-10-23T07:13:55.835Z,101056.91
2023-10-23T07:16:26.990Z,101041.63
2023-10-23T07:18:58.326Z,101040.38
2023-10-23T07:21:33.825Z,101043.97
2023-10-23T07:24:05.249Z,101055.28
2023-10-23T07:26:37.331Z,101056.41
2023-10-23T07:29:10.707Z,101058.03
2023-10-23T07:31:46.590Z,101050.34
2023-10-23T07:34:17.136Z,101051.53
2023-10-23T07:36:48.523Z,101051.13
2023-10-23T07:39:19.645Z,101051.94
2023-10-23T07:41:49.906Z,101043.13
2023-10-23T07:44:17.932Z,101055.59
2023-10-23T07:46:47.945Z,101053.22
2023-10-23T07:49:18.800Z,101055.59
2023-10-23T07:51:47.981Z,101054.97
2023-10-23T07:54:24.767Z,101052.75
2023-10-23T07:57:02.899Z,101059.69
2023-10-23T07:59:34.238Z,101059.69
2023-10-23T08:02:07.934Z,101067.34
2023-10-23T08:04:41.620Z,101071.38
2023-10-23T08:07:13.276Z,101086.72
2023-10-23T08:09:44.883Z,101082.69
2023-10-23T08:12:18.229Z,101084.78
2023-10-23T08:14:49.004Z,101092.47
2023-10-23T08:17:35.055Z,101094.22
2023-10-23T08:20:08.610Z,101099.03
2023-10-23T08:22:44.075Z,101096.25
2023-10-23T08:25:23.168Z,101097.53
2023-10-23T08:27:54.923Z,101100.59
2023-10-23T08:30:31.212Z,101102.16
2023-10-23T08:33:02.325Z,101115.47
2023-10-23T08:35:41.258Z,101112.19
2023-10-23T08:38:16.527Z,101114.25
2023-10-23T08:40:48.234Z,101103.38
2023-10-23T08:43:22.189Z,101105.78
2023-10-23T08:46:00.496Z,101092.41
2023-10-23T08:48:37.714Z,101089.66
2023-10-23T08:51:18.547Z,101085.25
2023-10-23T08:54:03.243Z,101083.66
2023-10-23T08:56:53.002Z,101078.72
2023-10-23T08:59:30.051Z,101084.78
2023-10-23T09:02:01.822Z,101098.50
2023-10-23T09:04:35.789Z,101092.47
2023-10-23T09:07:12.775Z,101085.69
2023-10-23T09:09:40.900Z,101090.59
2023-10-23T09:12:30.069Z,101092.97
2023-10-23T09:14:57.958Z,101105.50
2023-10-23T09:17:34.081Z,101106.28
2023-10-23T09:20:01.824Z,101109.91
2023-10-23T09:22:34.764Z,101100.19
2023-10-23T09:25:11.690Z,101084.44
2023-10-23T09:27:42.427Z,101079.63
2023-10-23T09:30:14.691Z,101075.69
2023-10-23T09:32:48.664Z,101074.97
2023-10-23T09:35:20.068Z,101074.28
2023-10-23T09:37:57.451Z,101086.47
2023-10-23T09:40:25.991Z,101076.91
2023-10-23T09:43:02.900Z,101078.94
2023-10-23T09:45:36.472Z,101080.19
2023-10-23T09:48:04.487Z,101077.03
2023-10-23T09:50:34.270Z,101081.00
2023-10-23T09:53:08.397Z,101072.53
2023-10-23T09:55:47.221Z,101070.09
2023-10-23T09:58:20.865Z,101071.25
2023-10-23T10:01:05.026Z,101078.97
2023-10-23T10:03:44.100Z,101071.72
2023-10-23T10:06:19.973Z,101077.41
2023-10-23T10:08:56.423Z,101081.81
2023-10-23T10:11:30.141Z,101074.56
2023-10-23T10:14:06.530Z,101076.19
2023-10-23T10:16:41.062Z,101077.06
2023-10-23T10:19:13.528Z,101075.84
2023-10-23T10:22:09.752Z,101073.81
2023-10-23T10:24:42.449Z,101066.16
2023-10-23T10:27:17.138Z,101069.38
2023-10-23T10:29:53.083Z,101062.53
2023-10-23T10:32:27.541Z,101062.53
2023-10-23T10:34:57.817Z,101062.16
2023-10-23T10:37:30.571Z,101060.09
2023-10-23T10:39:58.269Z,101064.97
2023-10-23T10:42:32.327Z,101064.56
2023-10-23T10:45:02.672Z,101059.69
2023-10-23T10:47:37.389Z,101066.09
2023-10-23T10:50:16.072Z,101069.69
2023-10-23T10:52:48.737Z,101074.13
2023-10-23T10:55:21.906Z,101062.38
2023-10-23T10:57:55.218Z,101068.84
2023-10-23T11:00:26.584Z,101057.09
2023-10-23T11:02:59.882Z,101050.22
2023-10-23T11:05:36.777Z,101050.63
2023-10-23T11:08:19.966Z,101030.38
2023-10-23T11:10:47.829Z,101026.72
2023-10-23T11:13:21.681Z,101027.78
2023-10-23T11:15:59.874Z,101025.38
2023-10-23T11:18:34.639Z,101021.75
2023-10-23T11:21:12.198Z,101009.56
2023-10-23T11:23:57.952Z,101003.91
2023-10-23T11:26:34.798Z,101000.66
2023-10-23T11:29:11.223Z,100993.00
2023-10-23T11:31:42.117Z,100989.41
2023-10-23T11:34:12.619Z,100982.16
2023-10-23T11:36:43.625Z,100978.13
2023-10-23T11:39:27.038Z,100985.38
2023-10-23T11:42:03.754Z,100983.00
2023-10-23T11:44:33.699Z,100972.91
2023-10-23T11:47:07.175Z,100966.06
2023-10-23T11:49:37.462Z,100965.25
2023-10-23T11:52:08.868Z,100960.75
2023-10-23T11:54:44.176Z,100954.72
2023-10-23T11:57:14.902Z,100950.75
2023-10-23T11:59:53.751Z,100946.31
2023-10-23T12:02:24.827Z,100943.53
2023-10-23T12:04:57.707Z,100946.72
2023-10-23T12:07:28.817Z,100955.16
2023-10-23T12:09:59.985Z,100955.97
2023-10-23T12:12:35.679Z,100951.88
2023-10-23T12:15:08.945Z,100952.69
2023-10-23T12:17:41.379Z,100953.50
2023-10-23T12:20:15.239Z,100962.38
2023-10-23T12:22:50.351Z,100956.72
2023-10-23T12:25:26.729Z,100953.91
2023-10-23T12:27:57.316Z,100944.19
2023-10-23T12:30:28.948Z,100948.19
2023-10-23T12:33:17.649Z,100955.06
2023-10-23T12:36:04.729Z,100948.63
2023-10-23T12:38:34.798Z,100941.75
2023-10-23T12:41:13.412Z,100934.47
2023-10-23T12:43:52.685Z,100938.09
2023-10-23T12:46:28.856Z,100935.28
2023-10-23T12:49:05.899Z,100933.31
2023-10-23T12:51:42.234Z,100935.31
2023-10-23T12:54:19.015Z,100924.81
2023-10-23T12:56:59.495Z,100928.19
2023-10-23T12:59:44.924Z,100925.75
2023-10-23T13:02:25.924Z,100929.00
2023-10-23T13:05:01.744Z,100935.91
2023-10-23T13:07:35.134Z,100933.88
2023-10-23T13:10:07.128Z,100935.50
2023-10-23T13:12:43.394Z,100938.34
2023-10-23T13:15:12.809Z,100936.38
2023-10-23T13:17:41.860Z,100941.22
2023-10-23T13:20:54.008Z,100925.06
2023-10-23T13:23:10.659Z,100933.13
2023-10-23T13:25:40.524Z,100929.13
2023-10-23T13:28:17.011Z,100922.25
2023-10-23T13:30:50.816Z,100930.69
2023-10-23T13:33:27.107Z,100939.97
2023-10-23T13:36:01.900Z,100947.25
2023-10-23T13:38:36.346Z,100944.00
2023-10-23T13:41:06.842Z,100944.78
2023-10-23T13:43:47.744Z,100942.34
2023-10-23T13:46:22.095Z,100944.38
2023-10-23T13:49:01.297Z,100933.88
2023-10-23T13:51:35.331Z,100925.81
2023-10-23T13:54:13.526Z,100922.22
2023-10-23T13:56:50.567Z,100920.19
2023-10-23T13:59:28.222Z,100919.00
2023-10-23T14:02:02.615Z,100922.69
2023-10-23T14:04:42.767Z,100923.53
2023-10-23T14:07:17.094Z,100913.03
2023-10-23T14:09:50.479Z,100917.94
2023-10-23T14:12:28.813Z,100909.44
2023-10-23T14:14:59.514Z,100911.50
2023-10-23T14:17:40.144Z,100908.22
2023-10-23T14:20:14.713Z,100904.97
2023-10-23T14:22:48.296Z,100912.25
2023-10-23T14:25:21.604Z,100910.63
2023-10-23T14:27:55.675Z,100909.00
2023-10-23T14:30:33.604Z,100903.34
2023-10-23T14:33:07.823Z,100908.56
2023-10-23T14:35:47.901Z,100900.50
2023-10-23T14:38:28.007Z,100894.78
2023-10-23T14:41:06.751Z,100891.16
2023-10-23T14:43:41.932Z,100898.84
2023-10-23T14:46:14.982Z,100890.34
2023-10-23T14:48:42.884Z,100890.38
2023-10-23T14:51:13.672Z,100890.78
2023-10-23T14:53:42.660Z,100887.53
2023-10-23T14:56:16.866Z,100885.94
2023-10-23T14:58:45.724Z,100891.16
2023-10-23T15:01:16.447Z,100898.47
2023-10-23T15:03:47.460Z,100902.09
2023-10-23T15:06:19.186Z,100901.75
2023-10-23T15:08:50.260Z,100898.50
2023-10-23T15:11:20.166Z,100895.31
2023-10-23T15:13:48.192Z,100894.09
2023-10-23T15:16:18.556Z,100884.78
2023-10-23T15:18:46.798Z,100875.88
2023-10-23T15:21:16.308Z,100877.47
2023-10-23T15:23:49.722Z,100884.34
2023-10-23T15:26:17.377Z,100885.56
2023-10-23T15:28:45.171Z,100878.66
2023-10-23T15:31:13.862Z,100871.34
2023-10-23T15:33:41.721Z,100881.44
2023-10-23T15:36:10.433Z,100883.88
2023-10-23T15:38:40.143Z,100884.66
2023-10-23T15:41:17.307Z,100886.25
2023-10-23T15:43:50.749Z,100888.66
2023-10-23T15:46:18.729Z,100894.31
2023-10-23T15:48:49.545Z,100885.03
2023-10-23T15:51:19.631Z,100880.59
2023-10-23T15:53:51.971Z,100881.75
2023-10-23T15:56:25.231Z,100894.66
2023-10-23T15:58:55.892Z,100887.38
2023-10-23T16:01:23.610Z,100873.22
2023-10-23T16:03:56.128Z,100882.16
2023-10-23T16:06:28.690Z,100888.97
2023-10-23T16:09:09.335Z,100878.47
2023-10-23T16:11:51.960Z,100895.84
2023-10-23T16:14:25.849Z,100898.66
2023-10-23T16:16:56.891Z,100896.66
2023-10-23T16:19:30.038Z,100895.38
2023-10-23T16:22:00.782Z,100907.03
2023-10-23T16:24:28.428Z,100904.63
2023-10-23T16:27:00.150Z,100892.50
2023-10-23T16:29:27.943Z,100894.50
2023-10-23T16:31:58.613Z,100894.50
2023-10-23T16:34:28.560Z,100900.16
2023-10-23T16:36:56.111Z,100895.31
2023-10-23T16:39:31.674Z,100897.34
2023-10-23T16:42:02.108Z,100897.38
2023-10-23T16:44:44.388Z,100901.00
2023-10-23T16:47:20.778Z,100897.34
2023-10-23T16:49:49.186Z,100901.34
2023-10-23T16:52:25.585Z,100905.03
2023-10-23T16:54:56.033Z,100912.66
2023-10-23T16:57:36.066Z,100900.53
2023-10-23T17:00:23.175Z,100902.50
2023-10-23T17:03:03.262Z,100904.47
2023-10-23T17:05:45.759Z,100906.09
2023-10-23T17:08:22.381Z,100902.84
2023-10-23T17:11:09.516Z,100894.38
2023-10-23T17:13:45.166Z,100897.19
2023-10-23T17:16:21.166Z,100905.66
2023-10-23T17:18:57.388Z,100910.09
2023-10-23T17:21:36.587Z,100913.69
2023-10-23T17:24:12.335Z,100915.72
2023-10-23T17:26:49.081Z,100916.94
2023-10-23T17:29:24.605Z,100922.97
2023-10-23T17:32:04.057Z,100939.13
2023-10-23T17:34:42.795Z,100950.84
2023-10-23T17:37:18.306Z,100959.34
2023-10-23T17:39:55.083Z,100958.53
2023-10-23T17:42:23.763Z,100949.19
2023-10-23T17:45:01.795Z,100919.75
2023-10-23T17:47:43.294Z,100920.13
2023-10-23T17:50:19.137Z,100926.19
2023-10-23T17:52:52.027Z,100933.03
2023-10-23T17:55:31.049Z,100943.94
2023-10-23T17:58:07.375Z,100939.88
2023-10-23T18:00:46.110Z,100936.66
2023-10-23T18:03:25.218Z,100935.47
2023-10-23T18:05:58.470Z,100941.09
2023-10-23T18:08:35.320Z,100934.22
2023-10-23T18:11:14.902Z,100930.16
2023-10-23T18:13:47.848Z,100931.38
2023-10-23T18:16:24.272Z,100930.16
2023-10-23T18:19:04.262Z,100939.84
2023-10-23T18:21:40.773Z,100937.41
2023-10-23T18:24:22.934Z,100931.75
2023-10-23T18:26:56.733Z,100941.88
2023-10-23T18:29:44.341Z,100935.81
2023-10-23T18:32:18.162Z,100928.91
2023-10-23T18:34:58.546Z,100916.47
2023-10-23T18:37:31.598Z,100926.53
2023-10-23T18:40:06.119Z,100922.09
2023-10-23T18:42:41.416Z,100928.59
2023-10-23T18:45:19.514Z,100920.13
2023-10-23T18:47:55.701Z,100914.00
2023-10-23T18:50:31.696Z,100915.25
2023-10-23T18:53:07.525Z,100912.84
2023-10-23T18:55:41.124Z,100913.22
2023-10-23T18:58:21.077Z,100914.09
2023-10-23T19:00:53.877Z,100922.94
2023-10-23T19:03:30.118Z,100924.53
2023-10-23T19:06:06.172Z,100916.06
2023-10-23T19:08:44.047Z,100897.84
2023-10-23T19:11:23.168Z,100897.03
2023-10-23T19:14:00.032Z,100891.38
2023-10-23T19:16:38.786Z,100901.88
2023-10-23T19:19:11.967Z,100897.00
2023-10-23T19:21:47.057Z,100904.25
2023-10-23T19:24:23.691Z,100899.38
2023-10-23T19:26:56.802Z,100902.22
2023-10-23T19:29:38.953Z,100903.84
2023-10-23T19:32:15.944Z,100896.97
2023-10-23T19:34:52.882Z,100892.94
2023-10-23T19:37:27.033Z,100882.06
2023-10-23T19:39:57.970Z,100875.16
2023-10-23T19:42:40.311Z,100872.78
2023-10-23T19:45:14.263Z,100873.97
2023-10-23T19:47:51.496Z,100873.16
2023-10-23T19:50:22.491Z,100882.84
2023-10-23T19:53:04.648Z,100884.84
2023-10-23T19:55:43.129Z,100876.38
2023-10-23T19:58:24.184Z,100884.81
2023-10-23T20:01:00.640Z,100888.03
2023-10-23T20:03:36.814Z,100888.03
2023-10-23T20:06:13.403Z,100888.84
2023-10-23T20:08:46.425Z,100901.72
2023-10-23T20:11:19.460Z,100896.84
2023-10-23T20:13:58.216Z,100896.06
2023-10-23T20:16:38.920Z,100894.84
2023-10-23T20:19:18.169Z,100894.44
2023-10-23T20:21:59.411Z,100891.56
2023-10-23T20:24:35.526Z,100894.00
2023-10-23T20:27:12.390Z,100892.78
2023-10-23T20:29:51.325Z,100894.41
2023-10-23T20:32:26.052Z,100894.41
2023-10-23T20:34:59.206Z,100875.06
2023-10-23T20:37:38.537Z,100867.81
2023-10-23T20:40:10.509Z,100861.31
2023-10-23T20:42:46.374Z,100854.09
2023-10-23T20:45:19.556Z,100857.69
2023-10-23T20:47:53.688Z,100856.88
2023-10-23T20:50:30.182Z,100849.63
2023-10-23T20:53:03.731Z,100844.78
2023-10-23T20:55:40.869Z,100837.47
2023-10-23T20:58:16.851Z,100854.03
2023-10-23T21:00:57.694Z,100852.44
2023-10-23T21:03:31.363Z,100854.47
2023-10-23T21:06:08.663Z,100849.19
2023-10-23T21:08:48.403Z,100846.34
2023-10-23T21:11:24.346Z,100843.53
2023-10-23T21:14:00.530Z,100846.75
2023-10-23T21:16:40.099Z,100850.38
2023-10-23T21:19:10.325Z,100854.38
2023-10-23T21:21:50.218Z,100856.41
2023-10-23T21:24:23.379Z,100863.69
2023-10-23T21:26:59.071Z,100858.44
2023-10-23T21:29:34.625Z,100875.38
2023-10-23T21:32:12.509Z,100879.00
2023-10-23T21:34:48.137Z,100863.69
2023-10-23T21:37:18.589Z,100848.34
2023-10-23T21:39:51.548Z,100840.69
2023-10-23T21:42:30.041Z,100829.41
2023-10-23T21:45:04.577Z,100824.97
2023-10-23T21:47:46.271Z,100818.53
2023-10-23T21:50:22.236Z,100828.19
2023-10-23T21:52:49.935Z,100828.19
2023-10-23T21:55:25.969Z,100832.22
2023-10-23T21:58:05.858Z,100830.59
2023-10-23T22:00:39.128Z,100826.97
2023-10-23T22:03:19.406Z,100826.16
2023-10-23T22:05:53.290Z,100807.22
2023-10-23T22:08:29.303Z,100816.88
2023-10-23T22:11:02.487Z,100818.88
2023-10-23T22:13:39.219Z,100827.75
2023-10-23T22:16:18.690Z,100828.94
2023-10-23T22:18:55.126Z,100828.56
2023-10-23T22:21:33.659Z,100832.16
2023-10-23T22:24:07.554Z,100847.53
2023-10-23T22:26:46.276Z,100834.19
2023-10-23T22:29:22.378Z,100824.88
2023-10-23T22:31:58.135Z,100822.13
2023-10-23T22:34:38.082Z,100822.13
2023-10-23T22:37:55.758Z,100834.22
2023-10-23T22:40:17.192Z,100827.75
2023-10-23T22:42:53.148Z,100837.03
2023-10-23T22:45:31.727Z,100841.09
2023-10-23T22:48:05.447Z,100835.84
2023-10-23T22:50:39.424Z,100842.28
2023-10-23T22:53:12.220Z,100830.97
2023-10-23T22:55:42.911Z,100838.22
2023-10-23T22:58:19.430Z,100864.06
2023-10-23T23:00:54.895Z,100872.97
2023-10-23T23:03:36.293Z,100874.16
2023-10-23T23:06:13.854Z,100853.97
2023-10-23T23:08:51.519Z,100845.06
2023-10-23T23:11:29.460Z,100849.91
2023-10-23T23:14:09.432Z,100865.66
2023-10-23T23:16:49.366Z,100872.09
2023-10-23T23:19:33.884Z,100866.44
2023-10-23T23:22:09.856Z,100888.66
2023-10-23T23:24:54.650Z,100889.03
2023-10-23T23:27:28.146Z,100882.19
2023-10-23T23:30:06.989Z,100879.38
2023-10-23T23:32:43.998Z,100860.78
2023-10-23T23:35:20.498Z,100833.34
2023-10-23T23:37:55.725Z,100824.47
2023-10-23T23:40:34.598Z,100818.44
2023-10-23T23:43:11.002Z,100816.00
2023-10-23T23:45:47.182Z,100817.25
2023-10-23T23:48:20.431Z,100813.59
2023-10-23T23:50:59.136Z,100819.22
2023-10-23T23:53:34.891Z,100824.06
2023-10-23T23:56:14.485Z,100821.25
2023-10-23T23:58:56.052Z,100824.47
